| Date | Time | Temp. (oF) | Dew Point (oF) | Rel. Hum. (%) | Press. (in.) | Wind Dir. | Wind Speed (mph) | Hourly Rainfall (in.) |
|
|---|---|---|---|---|---|---|---|---|---|
| 1 | 02/25 | 00:00 | 21 | 21 | 100 | 30.09 | NNW | 7 | 0.00 |
| 2 | 02/24 | 23:00 | 21 | 21 | 100 | 30.08 | N | 4 | 0.00 |
| 3 | 02/24 | 22:00 | 21 | 21 | 100 | 30.09 | NE | 3 | 0.00 |
| 4 | 02/24 | 21:00 | 21 | 21 | 100 | 30.10 | NE | 6 | 0.00 |
| 5 | 02/24 | 20:00 | 21 | 21 | 100 | 30.12 | NNE | 2 | 0.00 |
| 6 | 02/24 | 19:00 | 22 | 22 | 100 | 30.12 | NE | 9 | 0.00 |
| 7 | 02/24 | 18:00 | 22 | 22 | 100 | 30.10 | NE | 8 | 0.00 |
| 8 | 02/24 | 17:00 | 23 | 23 | 100 | 30.11 | NE | 14 | 0.00 |
| 9 | 02/24 | 16:00 | 24 | 23 | 99 | 30.12 | SE | 5 | 0.00 |
| 10 | 02/24 | 15:00 | 25 | 24 | 97 | 30.13 | ESE | 4 | 0.00 |
| 11 | 02/24 | 14:00 | 25 | 23 | 94 | 30.15 | NNE | 7 | 0.00 |
| 12 | 02/24 | 13:00 | 26 | 23 | 91 | 30.18 | E | 4 | 0.00 |
| 13 | 02/24 | 12:00 | 26 | 20 | 81 | 30.23 | E | 11 | 0.00 |
| 14 | 02/24 | 11:00 | 26 | 20 | 78 | 30.27 | NE | 7 | 0.00 |
| 15 | 02/24 | 10:00 | 26 | 17 | 69 | 30.27 | NE | 11 | 0.00 |
| 16 | 02/24 | 09:00 | 26 | 17 | 69 | 30.28 | ESE | 10 | 0.00 |
| 17 | 02/24 | 08:00 | 26 | 17 | 70 | 30.29 | E | 6 | 0.00 |
| 18 | 02/24 | 07:00 | 25 | 16 | 70 | 30.29 | NNE | 3 | 0.00 |
| 19 | 02/24 | 06:00 | 26 | 16 | 68 | 30.28 | NE | 12 | 0.00 |
| 20 | 02/24 | 05:00 | 27 | 18 | 69 | 30.28 | E | 7 | 0.00 |
| 21 | 02/24 | 04:00 | 28 | 18 | 68 | 30.29 | ENE | 3 | 0.00 |
| 22 | 02/24 | 03:00 | 29 | 19 | 67 | 30.30 | E | 6 | 0.00 |
| 23 | 02/24 | 02:00 | 29 | 23 | 81 | 30.29 | SE | 8 | 0.00 |
| 24 | 02/24 | 01:00 | 28 | 22 | 78 | 30.28 | NNE | 0 | 0.00 |